Notice: iconv(): Detected an illegal character in input string in /home/meteolat/www/weather28/wsLangFunctions.php on line 115

Notice: iconv(): Detected an illegal character in input string in /home/meteolat/www/weather28/wsLangFunctions.php on line 115
Météorologique de l'aéroport - Météo La Turballe
Notice: Undefined index: wuKey in /home/meteolat/www/weather28/wuforecast/wualmanac.php on line 27

Il s'agit d'un problème de communication. Allez directement sur le site Meteoalarm : www.meteoalarm.eu et vérifier les avertissements météorologiques..


Visitez nos sites météorologiques autres:

Template documentation
and downloads

And another site



Rapports METAR proximité

   
EHVK - Volkel Rnlafb, Netherlands
Distance: SO 18 km
Mise à jour: 14-04-2024 17:55
Nuageux  
Nuageux  
   Vent: ONO 11.1 km/h
Vent: ONO 11.1 km/h
Température: 14°C
Point de rosée: 4°C
Humidité: 51%
Baromètre: 1020 hPa
Nuageux: Nuageux
visibilité: More than 10 km
Détails des nuages: Nuageux 5100 ft,
Nuageux 5600 ft
EHVK 141555Z AUTO 30006KT 240V010 9999 BKN051 OVC056 14/04 Q1020 BLU
EDLV - Niederrhein, Germany
Distance: SE 25 km
Mise à jour: 14-04-2024 17:50
Claires  
Claires  
   Vent: Ouest 13 km/h
Vent: Ouest 13 km/h
Température: 15°C
Point de rosée: 3°C
Humidité: 45%
Baromètre: 1020 hPa
visibilité: More than 10 km
Détails des nuages: Claires
EDLV 141550Z 27007KT 240V310 CAVOK 15/03 Q1020
EHDL - Deelen Rnlafb, Netherlands
Distance: N 35 km
Mise à jour: 14-04-2024 17:55
Nuageux  
Nuageux  
   Vent: NO 18.5 km/h
Vent: NO 18.5 km/h
Température: 14°C
Point de rosée: 3°C
Humidité: 48%
Baromètre: 1021 hPa
Nuageux: Nuageux
visibilité: More than 10 km
Détails des nuages: Partiellement nuageux 4500 ft,
Nuageux 5000 ft,
Nuageux 5600 ft
EHDL 141555Z AUTO 32010KT 240V030 9999 SCT045 BKN050 BKN056 14/03 Q1021 BLU
EHEH - Eindhoven Rnlafb, Netherlands
Distance: SO 48 km
Mise à jour: 14-04-2024 17:55
Nuageux  
Nuageux  
   Vent: NO 13 km/h
Vent: NO 13 km/h
Température: 15°C
Point de rosée: 3°C
Humidité: 45%
Baromètre: 1021 hPa
Nuageux: Nuageux
visibilité: More than 10 km
Détails des nuages: Peu de nuages 5300 ft,
Nuageux 11000 ft
EHEH 141555Z AUTO 32007KT 260V350 9999 FEW053 OVC110 15/03 Q1021 BLU NOSIG
EHGR - Gilze-Rijen Rnla, Netherlands
Distance: OSO 70 km
Mise à jour: 14-04-2024 17:55
Nuageux  
Nuageux  
   Vent: Ouest 11.1 km/h
Vent: Ouest 11.1 km/h
Température: 14°C
Point de rosée: 4°C
Humidité: 51%
Baromètre: 1021 hPa
Nuageux: Nuageux
visibilité: More than 10 km
Détails des nuages: Nuageux 12000 ft
EHGR 141555Z AUTO 28006KT 240V320 9999 OVC120 14/04 Q1021 BLU
EBBL - Kleine-Brogel(Ba, Belgium
Distance: SSO 71 km
Mise à jour: 12-04-2024 17:25
PAS actuel
Peu de nuages  
Peu de nuages  
   Vent: OSO 22.2 km/h
Vent: OSO 22.2 km/h
Température: 21°C
Point de rosée: 11°C
Humidité: 53%
Baromètre: 1029 hPa
Nuageux: Peu de nuages
visibilité: More than 10 km
Détails des nuages: Peu de nuages 4400 ft
EBBL 121525Z AUTO 24012KT 9999 FEW044/// 21/11 Q1029 BLU

Script développé par  Saratoga-weather.org Adapté pour le modèle par  Weerstation Leuven

Équipement que nous utilisons:

Station de Météo
Davis Vantage Pro2

Davis Vantage Pro2